createdAt,value
2022-10-07T00:00:16.777Z,19.28
2022-10-07T00:01:16.823Z,19.29
2022-10-07T00:02:16.852Z,19.32
2022-10-07T00:03:16.774Z,19.29
2022-10-07T00:04:16.778Z,19.31
2022-10-07T00:05:16.770Z,19.25
2022-10-07T00:06:16.780Z,19.26
2022-10-07T00:07:16.765Z,19.28
2022-10-07T00:08:16.754Z,19.28
2022-10-07T00:09:16.762Z,19.32
2022-10-07T00:10:16.769Z,19.29
2022-10-07T00:11:16.761Z,19.26
2022-10-07T00:12:16.759Z,19.26
2022-10-07T00:13:16.773Z,19.23
2022-10-07T00:14:16.750Z,19.25
2022-10-07T00:15:16.749Z,19.26
2022-10-07T00:16:16.790Z,19.31
2022-10-07T00:17:16.747Z,19.28
2022-10-07T00:18:16.744Z,19.23
2022-10-07T00:19:16.738Z,19.31
2022-10-07T00:20:16.733Z,19.25
2022-10-07T00:21:16.737Z,19.26
2022-10-07T00:22:16.728Z,19.32
2022-10-07T00:23:16.720Z,19.29
2022-10-07T00:24:16.739Z,19.28
2022-10-07T00:25:16.734Z,19.29
2022-10-07T00:26:16.737Z,19.29
2022-10-07T00:27:16.714Z,19.23
2022-10-07T00:28:16.776Z,19.23
2022-10-07T00:29:16.718Z,19.22
2022-10-07T00:30:16.711Z,19.28
2022-10-07T00:31:16.785Z,19.19
2022-10-07T00:32:16.702Z,19.25
2022-10-07T00:33:16.723Z,19.31
2022-10-07T00:34:16.703Z,19.25
2022-10-07T00:35:16.713Z,19.26
2022-10-07T00:36:16.708Z,19.29
2022-10-07T00:37:16.697Z,19.21
2022-10-07T00:38:16.692Z,19.31
2022-10-07T00:39:16.687Z,19.21
2022-10-07T00:40:16.689Z,19.28
2022-10-07T00:41:16.700Z,19.28
2022-10-07T00:42:16.708Z,19.31
2022-10-07T00:43:16.686Z,19.25
2022-10-07T00:44:16.684Z,19.23
2022-10-07T00:45:16.708Z,19.29
2022-10-07T00:46:16.770Z,19.29
2022-10-07T00:47:16.680Z,19.14
2022-10-07T00:48:16.679Z,19.25
2022-10-07T00:49:16.673Z,19.19
2022-10-07T00:50:16.672Z,19.21
2022-10-07T00:51:16.664Z,19.21
2022-10-07T00:52:16.666Z,19.25
2022-10-07T00:53:16.660Z,19.18
2022-10-07T00:54:16.657Z,19.21
2022-10-07T00:55:16.657Z,19.25
2022-10-07T00:56:16.650Z,19.22
2022-10-07T00:57:16.656Z,19.21
2022-10-07T00:58:16.670Z,19.16
2022-10-07T00:59:16.654Z,19.13
2022-10-07T01:00:16.644Z,19.23
2022-10-07T01:01:16.715Z,19.14
2022-10-07T01:02:16.719Z,19.18
2022-10-07T01:03:16.645Z,19.21
2022-10-07T01:04:16.636Z,19.19
2022-10-07T01:05:16.627Z,19.22
2022-10-07T01:06:16.636Z,19.25
2022-10-07T01:07:16.622Z,19.18
2022-10-07T01:08:16.632Z,19.21
2022-10-07T01:09:16.628Z,19.21
2022-10-07T01:10:16.640Z,19.19
2022-10-07T01:11:16.620Z,19.14
2022-10-07T01:12:16.614Z,19.22
2022-10-07T01:13:16.611Z,19.22
2022-10-07T01:14:16.642Z,19.14
2022-10-07T01:15:16.608Z,19.11
2022-10-07T01:16:16.665Z,19.25
2022-10-07T01:17:16.615Z,19.18
2022-10-07T01:18:16.611Z,19.06
2022-10-07T01:19:16.600Z,19.13
2022-10-07T01:20:16.600Z,19.18
2022-10-07T01:21:16.600Z,19.07
2022-10-07T01:22:16.628Z,19.13
2022-10-07T01:23:16.587Z,19.11
2022-10-07T01:24:16.588Z,19.10
2022-10-07T01:25:16.595Z,19.14
2022-10-07T01:26:16.592Z,19.19
2022-10-07T01:27:16.577Z,19.08
2022-10-07T01:28:16.627Z,19.16
2022-10-07T01:29:16.577Z,19.11
2022-10-07T01:30:16.601Z,19.02
2022-10-07T01:31:16.651Z,19.10
2022-10-07T01:32:16.587Z,19.14
2022-10-07T01:33:16.569Z,19.11
2022-10-07T01:34:16.581Z,19.11
2022-10-07T01:35:16.568Z,19.06
2022-10-07T01:36:16.561Z,19.21
2022-10-07T01:37:16.563Z,19.08
2022-10-07T01:38:16.555Z,19.06
2022-10-07T01:39:16.565Z,19.18
2022-10-07T01:40:16.553Z,19.10
2022-10-07T01:41:16.547Z,19.10
2022-10-07T01:42:16.550Z,19.06
2022-10-07T01:43:16.562Z,19.06
2022-10-07T01:44:16.554Z,19.07
2022-10-07T01:45:16.580Z,19.06
2022-10-07T01:46:16.618Z,19.11
2022-10-07T01:47:16.532Z,19.07
2022-10-07T01:48:16.529Z,19.08
2022-10-07T01:49:16.534Z,19.10
2022-10-07T01:50:16.537Z,19.04
2022-10-07T01:51:16.521Z,19.06
2022-10-07T01:52:16.533Z,19.04
2022-10-07T01:53:16.536Z,19.08
2022-10-07T01:54:16.518Z,19.10
2022-10-07T01:55:16.534Z,18.99
2022-10-07T01:56:16.509Z,19.13
2022-10-07T01:57:16.520Z,19.08
2022-10-07T01:58:16.524Z,19.07
2022-10-07T01:59:16.512Z,19.07
2022-10-07T02:00:16.516Z,19.00
2022-10-07T02:01:16.598Z,19.04
2022-10-07T02:02:16.515Z,18.98
2022-10-07T02:03:19.981Z,19.04
2022-10-07T02:05:03.127Z,19.00
2022-10-07T02:06:03.121Z,19.04
2022-10-07T02:07:03.126Z,19.00
2022-10-07T02:08:03.118Z,18.98
2022-10-07T02:09:03.126Z,19.08
2022-10-07T02:10:03.120Z,18.94
2022-10-07T02:11:03.115Z,19.00
2022-10-07T02:12:03.108Z,19.04
2022-10-07T02:13:03.117Z,18.99
2022-10-07T02:14:03.112Z,19.00
2022-10-07T02:15:03.110Z,19.07
2022-10-07T02:16:03.162Z,19.02
2022-10-07T02:17:03.096Z,19.02
2022-10-07T02:18:03.125Z,18.99
2022-10-07T02:19:03.092Z,19.00
2022-10-07T02:20:03.098Z,18.99
2022-10-07T02:21:03.103Z,18.95
2022-10-07T02:22:03.092Z,18.98
2022-10-07T02:23:03.083Z,19.00
2022-10-07T02:24:03.083Z,18.98
2022-10-07T02:25:03.084Z,18.95
2022-10-07T02:26:03.079Z,18.98
2022-10-07T02:27:03.092Z,19.00
2022-10-07T02:28:03.114Z,18.98
2022-10-07T02:29:03.068Z,18.99
2022-10-07T02:30:03.068Z,19.02
2022-10-07T02:31:03.112Z,18.98
2022-10-07T02:32:03.068Z,18.99
2022-10-07T02:33:03.063Z,18.95
2022-10-07T02:34:03.088Z,18.98
2022-10-07T02:35:03.052Z,19.02
2022-10-07T02:36:03.052Z,18.94
2022-10-07T02:37:03.064Z,18.98
2022-10-07T02:38:03.046Z,18.98
2022-10-07T02:39:03.051Z,19.02
2022-10-07T02:40:03.039Z,18.99
2022-10-07T02:41:03.047Z,18.99
2022-10-07T02:42:03.048Z,18.99
2022-10-07T02:43:03.050Z,19.00
2022-10-07T02:44:03.036Z,18.95
2022-10-07T02:45:03.027Z,18.98
2022-10-07T02:46:03.137Z,18.92
2022-10-07T02:47:03.027Z,18.94
2022-10-07T02:48:03.027Z,18.95
2022-10-07T02:49:03.033Z,18.92
2022-10-07T02:50:03.049Z,18.98
2022-10-07T02:51:03.021Z,18.92
2022-10-07T02:52:03.009Z,18.94
2022-10-07T02:53:03.019Z,18.95
2022-10-07T02:54:03.022Z,18.98
2022-10-07T02:55:03.022Z,18.98
2022-10-07T02:56:03.002Z,18.90
2022-10-07T02:57:03.001Z,18.99
2022-10-07T02:58:03.016Z,18.91
2022-10-07T02:59:03.000Z,18.94
2022-10-07T03:00:07.333Z,18.95
2022-10-07T03:01:02.989Z,18.98
2022-10-07T03:02:03.133Z,18.92
2022-10-07T03:03:02.984Z,18.88
2022-10-07T03:04:03.089Z,18.94
2022-10-07T03:05:02.981Z,18.94
2022-10-07T03:06:03.010Z,18.90
2022-10-07T03:07:02.984Z,18.92
2022-10-07T03:08:02.978Z,18.92
2022-10-07T03:09:02.986Z,18.91
2022-10-07T03:10:02.973Z,18.92
2022-10-07T03:11:02.978Z,18.94
2022-10-07T03:12:03.212Z,18.91
2022-10-07T03:13:03.030Z,18.84
2022-10-07T03:14:03.022Z,18.90
2022-10-07T03:15:02.961Z,18.99
2022-10-07T03:16:02.966Z,18.88
2022-10-07T03:17:02.962Z,18.91
2022-10-07T03:18:02.948Z,18.90
2022-10-07T03:19:02.943Z,18.91
2022-10-07T03:20:02.956Z,18.91
2022-10-07T03:21:02.942Z,18.91
2022-10-07T03:22:02.956Z,18.95
2022-10-07T03:23:02.943Z,18.91
2022-10-07T03:24:02.940Z,18.90
2022-10-07T03:25:02.932Z,18.88
2022-10-07T03:26:02.935Z,18.88
2022-10-07T03:27:02.934Z,18.87
2022-10-07T03:28:02.982Z,18.88
2022-10-07T03:29:02.925Z,18.91
2022-10-07T03:30:02.921Z,18.87
2022-10-07T03:31:03.017Z,18.82
2022-10-07T03:32:02.918Z,18.85
2022-10-07T03:33:02.913Z,18.80
2022-10-07T03:34:02.909Z,18.87
2022-10-07T03:35:02.910Z,18.87
2022-10-07T03:36:02.905Z,18.87
2022-10-07T03:37:02.909Z,18.87
2022-10-07T03:38:02.930Z,18.84
2022-10-07T03:39:02.905Z,18.91
2022-10-07T03:40:02.894Z,18.85
2022-10-07T03:41:02.900Z,18.88
2022-10-07T03:42:02.890Z,18.90
2022-10-07T03:43:02.902Z,18.85
2022-10-07T03:44:02.885Z,18.84
2022-10-07T03:45:02.894Z,18.82
2022-10-07T03:46:02.980Z,18.90
2022-10-07T03:47:05.716Z,18.84
2022-10-07T03:48:02.879Z,18.85
2022-10-07T03:49:02.891Z,18.88
2022-10-07T03:50:02.870Z,18.84
2022-10-07T03:51:02.876Z,18.85
2022-10-07T03:52:02.866Z,18.85
2022-10-07T03:53:02.862Z,18.88
2022-10-07T03:54:02.891Z,18.85
2022-10-07T03:55:02.859Z,18.80
2022-10-07T03:56:02.886Z,18.90
2022-10-07T03:57:02.870Z,18.82
2022-10-07T03:58:02.874Z,18.85
2022-10-07T03:59:02.857Z,18.82
2022-10-07T04:00:02.855Z,18.85
2022-10-07T04:01:02.850Z,18.81
2022-10-07T04:02:02.945Z,18.81
2022-10-07T04:03:02.929Z,18.84
2022-10-07T04:04:02.845Z,18.81
2022-10-07T04:05:02.848Z,18.80
2022-10-07T04:06:02.845Z,18.78
2022-10-07T04:07:02.837Z,18.82
2022-10-07T04:08:02.831Z,18.88
2022-10-07T04:09:02.823Z,18.87
2022-10-07T04:10:02.853Z,18.82
2022-10-07T04:11:02.829Z,18.80
2022-10-07T04:12:02.831Z,18.84
2022-10-07T04:13:02.819Z,18.78
2022-10-07T04:14:02.819Z,18.76
2022-10-07T04:15:02.815Z,18.80
2022-10-07T04:16:02.879Z,18.78
2022-10-07T04:17:02.809Z,18.78
2022-10-07T04:18:02.804Z,18.75
2022-10-07T04:19:02.806Z,18.80
2022-10-07T04:20:02.803Z,18.80
2022-10-07T04:21:02.798Z,18.76
2022-10-07T04:22:08.260Z,18.80
2022-10-07T04:23:02.799Z,18.80
2022-10-07T04:24:02.789Z,18.76
2022-10-07T04:25:02.791Z,18.73
2022-10-07T04:26:02.801Z,18.80
2022-10-07T04:27:02.778Z,18.78
2022-10-07T04:28:03.080Z,18.80
2022-10-07T04:29:02.789Z,18.78
2022-10-07T04:30:02.774Z,18.73
2022-10-07T04:31:02.821Z,18.75
2022-10-07T04:32:02.780Z,18.80
2022-10-07T04:33:02.783Z,18.67
2022-10-07T04:34:02.772Z,18.75
2022-10-07T04:35:02.781Z,18.69
2022-10-07T04:36:02.766Z,18.72
2022-10-07T04:37:02.760Z,18.70
2022-10-07T04:38:02.755Z,18.75
2022-10-07T04:39:02.746Z,18.72
2022-10-07T04:40:02.752Z,18.75
2022-10-07T04:41:02.740Z,18.75
2022-10-07T04:42:02.764Z,18.66
2022-10-07T04:43:02.750Z,18.78
2022-10-07T04:44:02.733Z,18.69
2022-10-07T04:45:02.742Z,18.73
2022-10-07T04:46:02.730Z,18.73
2022-10-07T04:47:02.797Z,18.78
2022-10-07T04:48:02.736Z,18.70
2022-10-07T04:49:02.724Z,18.69
2022-10-07T04:50:02.727Z,18.75
2022-10-07T04:51:02.724Z,18.73
2022-10-07T04:52:02.723Z,18.69
2022-10-07T04:53:02.723Z,18.72
2022-10-07T04:54:02.716Z,18.80
2022-10-07T04:55:02.718Z,18.70
2022-10-07T04:56:02.715Z,18.69
2022-10-07T04:57:02.710Z,18.72
2022-10-07T04:58:02.739Z,18.75
2022-10-07T04:59:02.703Z,18.72
2022-10-07T05:00:02.708Z,18.78
2022-10-07T05:01:02.740Z,18.69
2022-10-07T05:02:02.779Z,18.75
2022-10-07T05:03:02.699Z,18.73
2022-10-07T05:04:02.686Z,18.69
2022-10-07T05:05:02.682Z,18.73
2022-10-07T05:06:05.599Z,18.78
2022-10-07T05:07:02.682Z,18.75
2022-10-07T05:08:02.674Z,18.73
2022-10-07T05:09:02.675Z,18.69
2022-10-07T05:10:02.675Z,18.70
2022-10-07T05:11:02.666Z,18.70
2022-10-07T05:12:02.665Z,18.73
2022-10-07T05:13:02.660Z,18.72
2022-10-07T05:14:02.688Z,18.69
2022-10-07T05:15:02.654Z,18.69
2022-10-07T05:16:02.760Z,18.72
2022-10-07T05:17:02.660Z,18.72
2022-10-07T05:18:02.663Z,18.72
2022-10-07T05:19:02.656Z,18.76
2022-10-07T05:20:02.650Z,18.72
2022-10-07T05:21:02.654Z,18.73
2022-10-07T05:22:02.648Z,18.78
2022-10-07T05:23:02.643Z,18.81
2022-10-07T05:24:02.645Z,18.82
2022-10-07T05:25:02.638Z,18.80
2022-10-07T05:26:02.635Z,18.91
2022-10-07T05:27:02.636Z,18.88
2022-10-07T05:28:02.690Z,18.81
2022-10-07T05:29:02.621Z,18.91
2022-10-07T05:30:02.656Z,18.98
2022-10-07T05:31:02.681Z,18.94
2022-10-07T05:32:05.143Z,18.92
2022-10-07T05:33:02.608Z,18.95
2022-10-07T05:34:02.613Z,18.95
2022-10-07T05:35:02.616Z,18.98
2022-10-07T05:36:02.615Z,19.04
2022-10-07T05:37:05.225Z,18.98
2022-10-07T05:38:02.629Z,19.04
2022-10-07T05:39:02.606Z,19.11
2022-10-07T05:40:02.595Z,19.13
2022-10-07T05:41:02.597Z,19.23
2022-10-07T05:42:02.591Z,19.25
2022-10-07T05:43:02.594Z,19.26
2022-10-07T05:44:02.595Z,19.25
2022-10-07T05:45:02.584Z,19.37
2022-10-07T05:46:02.699Z,19.41
2022-10-07T05:47:02.587Z,19.46
2022-10-07T05:48:02.581Z,19.44
2022-10-07T05:49:02.582Z,19.47
2022-10-07T05:50:02.588Z,19.43
2022-10-07T05:51:02.582Z,19.54
2022-10-07T05:52:02.582Z,19.56
2022-10-07T05:53:02.574Z,19.58
2022-10-07T05:54:02.569Z,19.58
2022-10-07T05:55:02.568Z,19.69
2022-10-07T05:56:02.578Z,19.68
2022-10-07T05:57:02.566Z,19.61
2022-10-07T05:58:02.573Z,19.59
2022-10-07T05:59:02.564Z,19.69
2022-10-07T06:00:02.567Z,19.63
2022-10-07T06:01:06.143Z,19.65
2022-10-07T06:02:02.720Z,19.58
2022-10-07T06:03:02.739Z,19.66
2022-10-07T06:04:02.553Z,19.59
2022-10-07T06:05:02.558Z,19.66
2022-10-07T06:06:02.544Z,19.59
2022-10-07T06:07:02.551Z,19.63
2022-10-07T06:08:02.551Z,19.59
2022-10-07T06:09:02.562Z,19.55
2022-10-07T06:10:02.547Z,19.58
2022-10-07T06:11:02.539Z,19.58
2022-10-07T06:12:02.537Z,19.59
2022-10-07T06:13:02.555Z,19.62
2022-10-07T06:14:02.556Z,19.56
2022-10-07T06:15:02.538Z,19.56
2022-10-07T06:16:02.530Z,19.56
2022-10-07T06:17:02.579Z,19.58
2022-10-07T06:18:02.548Z,19.54
2022-10-07T06:19:02.530Z,19.58
2022-10-07T06:20:02.530Z,19.58
2022-10-07T06:21:02.534Z,19.54
2022-10-07T06:22:02.536Z,19.54
2022-10-07T06:23:02.515Z,19.54
2022-10-07T06:24:02.525Z,19.56
2022-10-07T06:25:02.515Z,19.51
2022-10-07T06:26:02.525Z,19.54
2022-10-07T06:27:02.532Z,19.50
2022-10-07T06:28:02.571Z,19.43
2022-10-07T06:29:02.508Z,19.50
2022-10-07T06:30:02.505Z,19.43
2022-10-07T06:31:02.602Z,19.43
2022-10-07T06:32:02.504Z,19.46
2022-10-07T06:33:02.511Z,19.44
2022-10-07T06:34:02.529Z,19.39
2022-10-07T06:35:02.503Z,19.41
2022-10-07T06:36:04.528Z,19.37
2022-10-07T06:37:02.503Z,19.39
2022-10-07T06:38:02.493Z,19.33
2022-10-07T06:39:02.490Z,19.39
2022-10-07T06:40:02.486Z,19.39
2022-10-07T06:41:02.482Z,19.37
2022-10-07T06:42:02.480Z,19.28
2022-10-07T06:43:02.483Z,19.37
2022-10-07T06:44:02.485Z,19.41
2022-10-07T06:45:02.501Z,19.40
2022-10-07T06:46:02.526Z,19.39
2022-10-07T06:47:02.473Z,19.40
2022-10-07T06:48:02.475Z,19.33
2022-10-07T06:49:02.478Z,19.31
2022-10-07T06:50:02.507Z,19.28
2022-10-07T06:51:02.473Z,19.32
2022-10-07T06:52:02.471Z,19.32
2022-10-07T06:53:02.466Z,19.29
2022-10-07T06:54:02.463Z,19.26
2022-10-07T06:55:02.466Z,19.23
2022-10-07T06:56:02.457Z,19.29
2022-10-07T06:57:11.455Z,19.25
2022-10-07T06:58:06.275Z,19.28
2022-10-07T06:59:02.446Z,19.31
2022-10-07T07:00:02.453Z,19.25
2022-10-07T07:01:02.503Z,19.25
2022-10-07T07:02:02.474Z,19.23
2022-10-07T07:03:02.438Z,19.33
2022-10-07T07:04:02.448Z,19.25
2022-10-07T07:06:02.457Z,19.22
2022-10-07T07:07:02.440Z,19.22
2022-10-07T07:08:02.440Z,19.21
2022-10-07T07:09:02.443Z,19.28
2022-10-07T07:10:02.435Z,19.21
2022-10-07T07:11:02.431Z,19.21
2022-10-07T07:12:02.427Z,19.25
2022-10-07T07:14:02.440Z,19.19
2022-10-07T07:15:02.426Z,19.16
2022-10-07T07:16:02.420Z,19.18
2022-10-07T07:17:02.490Z,19.23
2022-10-07T07:18:02.421Z,19.22
2022-10-07T07:19:02.407Z,19.19
2022-10-07T07:20:02.414Z,19.18
2022-10-07T07:21:02.411Z,19.13
2022-10-07T07:22:02.475Z,19.11
2022-10-07T07:23:02.405Z,19.11
2022-10-07T07:24:02.405Z,19.13
2022-10-07T07:25:02.398Z,19.08
2022-10-07T07:26:02.396Z,19.13
2022-10-07T07:27:02.392Z,19.11
2022-10-07T07:28:02.493Z,19.13
2022-10-07T07:29:02.401Z,19.07
2022-10-07T07:30:02.388Z,19.08
2022-10-07T07:31:02.440Z,19.06
2022-10-07T07:32:02.389Z,19.13
2022-10-07T07:33:02.387Z,19.07
2022-10-07T07:34:02.377Z,19.10
2022-10-07T07:35:02.377Z,19.06
2022-10-07T07:36:02.382Z,19.02
2022-10-07T07:37:02.378Z,19.11
2022-10-07T07:38:02.395Z,19.10
2022-10-07T07:39:02.372Z,19.07
2022-10-07T07:40:02.372Z,18.98
2022-10-07T07:41:02.367Z,19.00
2022-10-07T07:42:02.375Z,19.07
2022-10-07T07:43:02.369Z,19.07
2022-10-07T07:44:02.361Z,19.04
2022-10-07T07:45:02.357Z,19.00
2022-10-07T07:46:02.410Z,19.00
2022-10-07T07:47:02.349Z,19.04
2022-10-07T07:48:02.348Z,19.00
2022-10-07T07:49:02.360Z,19.04
2022-10-07T07:50:02.355Z,18.99
2022-10-07T07:51:02.340Z,18.98
2022-10-07T07:52:02.354Z,19.02
2022-10-07T07:53:02.347Z,18.98
2022-10-07T07:54:02.367Z,19.00
2022-10-07T07:55:02.331Z,18.98
2022-10-07T07:56:02.337Z,18.98
2022-10-07T07:57:02.339Z,18.95
2022-10-07T07:58:02.333Z,19.02
2022-10-07T07:59:02.327Z,18.95
2022-10-07T08:00:02.331Z,18.99
2022-10-07T08:01:02.347Z,18.95
2022-10-07T08:02:02.320Z,18.98
2022-10-07T08:03:02.324Z,19.00
2022-10-07T08:04:02.322Z,18.95
2022-10-07T08:05:02.316Z,18.99
2022-10-07T08:06:02.314Z,18.95
2022-10-07T08:07:02.304Z,18.95
2022-10-07T08:08:02.312Z,18.98
2022-10-07T08:09:02.310Z,19.04
2022-10-07T08:10:02.337Z,18.92
2022-10-07T08:11:02.308Z,18.95
2022-10-07T08:12:02.309Z,18.91
2022-10-07T08:13:02.296Z,18.92
2022-10-07T08:14:02.297Z,18.95
2022-10-07T08:15:02.300Z,18.95
2022-10-07T08:16:02.339Z,18.92
2022-10-07T08:17:02.287Z,18.95
2022-10-07T08:18:02.302Z,18.92
2022-10-07T08:19:02.287Z,18.87
2022-10-07T08:20:02.285Z,18.95
2022-10-07T08:21:02.290Z,18.88
2022-10-07T08:22:02.275Z,18.95
2022-10-07T08:23:02.284Z,18.95
2022-10-07T08:24:02.291Z,18.88
2022-10-07T08:25:02.284Z,18.95
2022-10-07T08:26:02.286Z,18.91
2022-10-07T08:27:02.264Z,18.92
2022-10-07T08:28:02.279Z,18.91
2022-10-07T08:29:02.266Z,18.94
2022-10-07T08:30:02.265Z,18.91
2022-10-07T08:31:02.341Z,18.92
2022-10-07T08:32:02.306Z,18.91
2022-10-07T08:33:02.257Z,18.92
2022-10-07T08:34:02.251Z,18.88
2022-10-07T08:35:02.259Z,18.95
2022-10-07T08:36:02.247Z,18.92
2022-10-07T08:37:02.242Z,18.91
2022-10-07T08:38:02.261Z,18.90
2022-10-07T08:39:02.239Z,18.94
2022-10-07T08:40:02.267Z,18.91
2022-10-07T08:41:02.238Z,18.92
2022-10-07T08:42:02.255Z,18.91
2022-10-07T08:43:02.239Z,18.91
2022-10-07T08:44:04.191Z,18.94
2022-10-07T08:45:02.233Z,18.91
2022-10-07T08:46:02.253Z,18.92
2022-10-07T08:47:02.229Z,18.91
2022-10-07T08:48:02.215Z,18.92
2022-10-07T08:49:02.234Z,18.92
2022-10-07T08:50:02.215Z,18.94
2022-10-07T08:51:02.213Z,18.91
2022-10-07T08:52:02.212Z,18.95
2022-10-07T08:53:02.219Z,18.82
2022-10-07T08:54:02.212Z,18.94
2022-10-07T08:55:02.208Z,18.82
2022-10-07T08:56:02.201Z,18.90
2022-10-07T08:57:02.212Z,18.91
2022-10-07T08:58:02.231Z,18.91
2022-10-07T08:59:02.204Z,18.94
2022-10-07T09:00:02.191Z,18.91
2022-10-07T09:01:02.270Z,18.90
2022-10-07T09:02:02.190Z,18.82
2022-10-07T09:03:02.187Z,18.92
2022-10-07T09:04:02.191Z,18.88
2022-10-07T09:05:02.189Z,18.94
2022-10-07T09:06:02.183Z,18.91
2022-10-07T09:07:02.189Z,18.81
2022-10-07T09:08:02.180Z,18.88
2022-10-07T09:09:02.177Z,18.84
2022-10-07T09:10:02.182Z,18.91
2022-10-07T09:11:07.188Z,18.88
2022-10-07T09:12:02.172Z,18.90
2022-10-07T09:13:02.174Z,18.88
2022-10-07T09:14:02.190Z,18.80
2022-10-07T09:15:02.159Z,18.87
2022-10-07T09:16:02.219Z,18.82
2022-10-07T09:17:02.160Z,18.92
2022-10-07T09:18:02.158Z,18.81
2022-10-07T09:19:02.153Z,18.81
2022-10-07T09:20:02.147Z,18.82
2022-10-07T09:21:02.149Z,18.88
2022-10-07T09:22:02.154Z,18.80
2022-10-07T09:23:02.147Z,18.94
2022-10-07T09:24:02.145Z,18.82
2022-10-07T09:25:02.146Z,18.88
2022-10-07T09:26:02.142Z,18.80
2022-10-07T09:27:02.131Z,18.81
2022-10-07T09:28:02.166Z,18.88
2022-10-07T09:29:02.138Z,18.84
2022-10-07T09:30:02.150Z,18.90
2022-10-07T09:31:02.194Z,18.88
2022-10-07T09:32:02.133Z,18.78
2022-10-07T09:33:02.121Z,18.85
2022-10-07T09:34:02.124Z,18.78
2022-10-07T09:35:02.126Z,18.80
2022-10-07T09:36:02.113Z,18.85
2022-10-07T09:37:02.126Z,18.78
2022-10-07T09:38:02.113Z,18.82
2022-10-07T09:39:02.111Z,18.87
2022-10-07T09:40:02.116Z,18.82
2022-10-07T09:41:02.106Z,18.82
2022-10-07T09:42:02.114Z,18.88
2022-10-07T09:43:02.104Z,18.78
2022-10-07T09:44:02.096Z,18.78
2022-10-07T09:45:02.099Z,18.80
2022-10-07T09:46:02.218Z,18.87
2022-10-07T09:47:02.102Z,18.80
2022-10-07T09:48:02.088Z,18.87
2022-10-07T09:49:02.092Z,18.80
2022-10-07T09:50:02.091Z,18.78
2022-10-07T09:51:02.095Z,18.88
2022-10-07T09:52:02.088Z,18.81
2022-10-07T09:53:02.074Z,18.84
2022-10-07T09:54:02.084Z,18.78
2022-10-07T09:55:02.069Z,18.88
2022-10-07T09:56:02.078Z,18.82
2022-10-07T09:57:02.078Z,18.81
2022-10-07T09:58:02.064Z,18.91
2022-10-07T09:59:02.074Z,18.81
2022-10-07T10:00:02.070Z,18.81
2022-10-07T10:01:02.065Z,18.91
2022-10-07T10:02:02.168Z,18.81
2022-10-07T10:03:05.289Z,18.85
2022-10-07T10:04:02.052Z,18.81
2022-10-07T10:05:02.053Z,18.85
2022-10-07T10:06:02.051Z,18.85
2022-10-07T10:07:02.055Z,18.80
2022-10-07T10:08:02.053Z,18.82
2022-10-07T10:09:02.044Z,18.80
2022-10-07T10:10:02.043Z,18.87
2022-10-07T10:11:02.042Z,18.91
2022-10-07T10:12:02.033Z,18.85
2022-10-07T10:13:02.039Z,18.81
2022-10-07T10:14:02.029Z,18.85
2022-10-07T10:15:02.031Z,18.84
2022-10-07T10:16:02.115Z,18.85
2022-10-07T10:17:02.029Z,18.94
2022-10-07T10:18:02.078Z,18.84
2022-10-07T10:19:02.024Z,18.91
2022-10-07T10:20:02.037Z,18.82
2022-10-07T10:21:02.013Z,18.88
2022-10-07T10:22:02.025Z,18.81
2022-10-07T10:23:02.018Z,18.84
2022-10-07T10:24:02.013Z,18.82
2022-10-07T10:25:02.007Z,18.91
2022-10-07T10:26:02.010Z,18.82
2022-10-07T10:27:02.000Z,18.91
2022-10-07T10:28:02.023Z,18.90
2022-10-07T10:29:02.001Z,18.92
2022-10-07T10:30:02.005Z,18.92
2022-10-07T10:31:02.033Z,18.84
2022-10-07T10:32:01.992Z,18.90
2022-10-07T10:33:01.993Z,18.90
2022-10-07T10:34:02.119Z,18.84
2022-10-07T10:35:01.989Z,18.88
2022-10-07T10:36:01.977Z,18.82
2022-10-07T10:37:01.980Z,18.85
2022-10-07T10:38:01.973Z,18.84
2022-10-07T10:39:01.985Z,18.98
2022-10-07T10:40:01.971Z,18.92
2022-10-07T10:41:01.978Z,18.92
2022-10-07T10:42:01.968Z,18.90
2022-10-07T10:43:01.983Z,18.84
2022-10-07T10:44:01.962Z,18.90
2022-10-07T10:45:01.964Z,18.91
2022-10-07T10:46:01.966Z,18.80
2022-10-07T10:47:02.004Z,18.87
2022-10-07T10:48:01.961Z,18.91
2022-10-07T10:49:01.956Z,18.92
2022-10-07T10:50:01.968Z,18.90
2022-10-07T10:51:01.947Z,18.88
2022-10-07T10:52:01.947Z,18.87
2022-10-07T10:53:01.964Z,18.90
2022-10-07T10:54:01.959Z,18.94
2022-10-07T10:55:01.943Z,18.80
2022-10-07T10:56:01.947Z,18.80
2022-10-07T10:57:01.948Z,18.82
2022-10-07T10:58:01.938Z,18.80
2022-10-07T10:59:01.935Z,18.90
2022-10-07T11:00:01.931Z,18.82
2022-10-07T11:01:01.929Z,18.90
2022-10-07T11:02:02.004Z,18.81
2022-10-07T11:03:01.981Z,18.84
2022-10-07T11:04:01.921Z,18.80
2022-10-07T11:05:01.926Z,18.92
2022-10-07T11:06:01.962Z,18.91
2022-10-07T11:07:01.920Z,18.94
2022-10-07T11:08:02.198Z,18.94
2022-10-07T11:09:01.912Z,18.95
2022-10-07T11:10:02.247Z,18.99
2022-10-07T11:11:01.923Z,18.91
2022-10-07T11:12:01.900Z,18.99
2022-10-07T11:13:01.907Z,18.88
2022-10-07T11:14:02.003Z,18.91
2022-10-07T11:15:02.190Z,18.91
2022-10-07T11:16:01.939Z,18.99
2022-10-07T11:17:01.896Z,18.91
2022-10-07T11:18:01.894Z,18.94
2022-10-07T11:19:01.888Z,18.99
2022-10-07T11:20:01.894Z,18.98
2022-10-07T11:21:01.881Z,18.94
2022-10-07T11:22:01.927Z,18.94
2022-10-07T11:23:01.883Z,18.99
2022-10-07T11:24:01.881Z,18.92
2022-10-07T11:25:01.875Z,18.99
2022-10-07T11:26:01.883Z,18.84
2022-10-07T11:27:01.867Z,18.91
2022-10-07T11:28:01.948Z,18.92
2022-10-07T11:29:01.882Z,18.98
2022-10-07T11:30:01.873Z,18.94
2022-10-07T11:31:01.906Z,18.88
2022-10-07T11:32:01.866Z,18.92
2022-10-07T11:33:01.858Z,18.90
2022-10-07T11:34:01.863Z,18.98
2022-10-07T11:35:01.850Z,18.90
2022-10-07T11:36:01.851Z,19.00
2022-10-07T11:37:01.843Z,18.98
2022-10-07T11:38:01.873Z,18.94
2022-10-07T11:39:01.855Z,18.98
2022-10-07T11:40:01.849Z,18.92
2022-10-07T11:41:01.853Z,18.92
2022-10-07T11:42:01.833Z,18.98
2022-10-07T11:43:01.837Z,18.94
2022-10-07T11:44:01.837Z,18.98
2022-10-07T11:45:01.847Z,18.95
2022-10-07T11:46:01.850Z,18.99
2022-10-07T11:47:01.915Z,18.90
2022-10-07T11:48:01.818Z,18.95
2022-10-07T11:49:01.828Z,18.98
2022-10-07T11:50:01.830Z,18.94
2022-10-07T11:51:01.831Z,18.98
2022-10-07T11:52:01.832Z,18.95
2022-10-07T11:53:01.809Z,18.94
2022-10-07T11:54:01.856Z,18.95
2022-10-07T11:55:01.820Z,19.02
2022-10-07T11:56:01.813Z,18.95
2022-10-07T11:57:01.801Z,18.98
2022-10-07T11:58:01.824Z,18.90
2022-10-07T11:59:01.809Z,18.99
2022-10-07T12:00:01.795Z,18.98
2022-10-07T12:01:01.800Z,18.92
2022-10-07T12:02:01.868Z,18.95
2022-10-07T12:03:01.816Z,19.00
2022-10-07T12:04:01.798Z,18.91
2022-10-07T12:05:01.797Z,18.95
2022-10-07T12:06:01.780Z,18.99
2022-10-07T12:07:01.783Z,19.04
2022-10-07T12:08:01.792Z,19.10
2022-10-07T12:09:01.784Z,19.00
2022-10-07T12:10:01.835Z,18.99
2022-10-07T12:11:02.625Z,18.94
2022-10-07T12:12:01.776Z,19.02
2022-10-07T12:13:01.771Z,18.99
2022-10-07T12:14:01.773Z,18.95
2022-10-07T12:15:01.769Z,19.08
2022-10-07T12:16:01.799Z,19.02
2022-10-07T12:17:01.765Z,18.99
2022-10-07T12:18:01.758Z,18.98
2022-10-07T12:19:01.760Z,19.02
2022-10-07T12:20:01.754Z,18.99
2022-10-07T12:21:01.761Z,19.04
2022-10-07T12:22:01.759Z,19.00
2022-10-07T12:23:01.755Z,18.98
2022-10-07T12:24:01.750Z,19.00
2022-10-07T12:25:01.750Z,18.95
2022-10-07T12:26:01.929Z,18.99
2022-10-07T12:27:01.747Z,19.00
2022-10-07T12:28:01.828Z,18.92
2022-10-07T12:29:01.733Z,18.99
2022-10-07T12:30:01.737Z,19.00
2022-10-07T12:31:01.738Z,18.99
2022-10-07T12:32:01.857Z,19.08
2022-10-07T12:33:01.733Z,19.04
2022-10-07T12:34:01.725Z,19.06
2022-10-07T12:35:01.784Z,18.95
2022-10-07T12:36:01.727Z,19.02
2022-10-07T12:37:01.718Z,19.07
2022-10-07T12:38:01.720Z,19.07
2022-10-07T12:39:01.720Z,19.07
2022-10-07T12:40:01.709Z,19.00
2022-10-07T12:41:01.718Z,19.07
2022-10-07T12:42:01.724Z,18.99
2022-10-07T12:43:01.710Z,19.00
2022-10-07T12:44:01.705Z,19.08
2022-10-07T12:45:01.697Z,19.07
2022-10-07T12:46:01.784Z,19.08
2022-10-07T12:47:01.701Z,18.99
2022-10-07T12:48:01.709Z,19.04
2022-10-07T12:49:01.693Z,19.06
2022-10-07T12:50:01.701Z,19.08
2022-10-07T12:51:01.694Z,19.08
2022-10-07T12:52:01.690Z,19.04
2022-10-07T12:53:01.692Z,19.04
2022-10-07T12:54:01.682Z,19.06
2022-10-07T12:55:01.683Z,19.04